Main page
METAR-TAF:

METAR-TAF

Airports :

Tehran, Iran

Tehran Imam Khomeini International Airport

latitude: 35-24-58N, longitude: 51-09-08E, elevation: 1007 m

Current weather observation

The report was made 1 hour and 1 minutes ago, at 09:00 UTC
Calm wind
Temperature 22°C
Humidity 13%
Pressure 1014 hPa
Visibility 10 km or more
no clouds below 1500 m and no cumulonimbus

METAR: OIIE 220900Z 00000KT CAVOK 22/M08 Q1014

Time: 13:31 (10:01 UTC)

Forecast

The report was made 4 hours and 31 minutes ago, at 05:30 UTC
Forecast valid from 22 at 06 UTC to 23 at 12 UTC
Wind 6 kt from the Northwest
Visibility 10 km or more
no clouds below 1500 m and no cumulonimbus
Temporary
from 23 at 08 UTC to 23 at 12 UTC
Wind 16 kt from the West

TAF: OIIE 220530Z 2206/2312 32003MPS CAVOK TEMPO 2308/2312 26008MPS

Weather observations and forecasts of more than 4000 airports (METAR and TAF reports).

The available stations are represented by yellow and red dots on the map.

Hover mouse over dot to see the name of the station.

Then click to see weather observations and forecasts.

To change the map : click on the green buttons with a black cross to zoom in, on the green button with a dash to zoom out, or on the green arrows for adjacent maps.


METAR-TAF: